Victoria Regional Airport
KVCT : now visible

Airfield :











YOU CAN JOIN US ON...

 
LOGIN :

Register | Disclaimer

   EN    FR    IT 

 









Legend :    VFR   Marginal VFR   IFR   Intensive IFR   Very Intensive IFR
Visi :
Ceiling :
>= 8 km
>= 3000ft
5 to 8 km
1000 to 3000 ft
1500m to 5 km
500 to 1000 ft
800 to 1500m
200 to 500 ft
< 800m
< 200 ft
Symbols :   Thunderstorms  Fog  Heavy snow  Heavy precipitations  Wind > 20 kt







- Airport Elevation : 115 ft
- IATA code : VCT


KVCT - Victoria Regional

CURRENT METAR :
  • 220051Z 13011KT 10SM CLR 28/23 A2998 RMK AO2 SLP149 T02780228

EXPIRED METARs :
  • 212351Z 13015KT 10SM CLR 29/23 A2997 RMK AO2 SLP146 T02940228 10333 20294 55004
  • 212251Z 13015G20KT 10SM SCT080 31/23 A2997 RMK AO2 SLP145 T03110228

TAF KVCT
Valid from the 22 at 00:00 until the 23 at 00:00 UTC


212323Z 2200/2224 14014G18KT P6SM FEW040 SCT080
FM220200 14008KT P6SM SCT020
FM220800 11004KT P6SM SCT015
TEMPO 2212/2214 5SM BR BKN015
FM221600 14009KT P6SM VCSH SCT040
No reported NOTAMs for that airfield.



MET'MAP, your aeronautical weather chart ! - Copyright ORBIFLY December 2007 - Disclaimer

ORBIFLY MET'MAP TEAM :

Programming & Development : Alexandra Zaïnal
Concept & Development : Baudouin d'Aumeries
Co-Development & Prog : Marc-Olivier Méhu
Technical & hardware support : Manuel Goepfert

Contact : metmap@orbifly.com




SOURCES & CREDITS :

   NOAA       Earth
Advisory